createdAt,value
2018-02-01T00:01:52.949Z,3.93
2018-02-01T00:04:21.514Z,4.73
2018-02-01T00:06:49.778Z,3.67
2018-02-01T00:09:17.296Z,3.37
2018-02-01T00:11:44.843Z,3.30
2018-02-01T00:14:12.348Z,3.33
2018-02-01T00:16:40.625Z,3.57
2018-02-01T00:19:08.181Z,5.00
2018-02-01T00:21:35.687Z,2.70
2018-02-01T00:24:03.982Z,3.50
2018-02-01T00:26:32.284Z,3.10
2018-02-01T00:28:59.809Z,3.00
2018-02-01T00:31:27.336Z,3.37
2018-02-01T00:33:54.866Z,3.20
2018-02-01T00:36:22.502Z,3.17
2018-02-01T00:38:50.013Z,3.60
2018-02-01T00:41:17.519Z,4.57
2018-02-01T00:43:45.854Z,3.43
2018-02-01T00:46:15.278Z,2.87
2018-02-01T00:48:42.859Z,3.13
2018-02-01T00:51:10.417Z,3.07
2018-02-01T00:53:37.915Z,2.50
2018-02-01T00:56:06.219Z,2.80
2018-02-01T00:58:33.761Z,3.30
2018-02-01T01:01:01.292Z,3.00
2018-02-01T01:03:28.789Z,2.83
2018-02-01T01:05:56.314Z,2.77
2018-02-01T01:08:23.878Z,2.97
2018-02-01T01:10:51.383Z,2.50
2018-02-01T01:13:18.915Z,2.60
2018-02-01T01:15:46.450Z,3.57
2018-02-01T01:18:15.470Z,2.53
2018-02-01T01:20:43.009Z,3.10
2018-02-01T01:23:10.515Z,2.23
2018-02-01T01:25:38.055Z,3.10
2018-02-01T01:28:05.558Z,3.07
2018-02-01T01:30:33.056Z,2.57
2018-02-01T01:33:00.578Z,2.50
2018-02-01T01:35:28.080Z,2.10
2018-02-01T01:37:56.481Z,3.80
2018-02-01T01:40:25.678Z,2.90
2018-02-01T01:42:54.001Z,4.20
2018-02-01T01:45:21.531Z,3.03
2018-02-01T01:47:49.038Z,3.40
2018-02-01T01:50:16.590Z,3.93
2018-02-01T01:52:44.882Z,2.60
2018-02-01T01:55:13.170Z,3.00
2018-02-01T01:57:42.244Z,3.43
2018-02-01T02:00:09.753Z,3.13
2018-02-01T02:02:38.018Z,2.87
2018-02-01T02:05:06.359Z,3.33
2018-02-01T02:07:33.859Z,3.17
2018-02-01T02:10:01.424Z,3.33
2018-02-01T02:12:28.919Z,2.90
2018-02-01T02:14:56.442Z,3.40
2018-02-01T02:17:23.942Z,3.80
2018-02-01T02:19:52.252Z,3.73
2018-02-01T02:22:20.518Z,3.07
2018-02-01T02:24:50.925Z,3.23
2018-02-01T02:27:18.446Z,3.37
2018-02-01T02:29:45.942Z,3.20
2018-02-01T02:32:23.200Z,3.60
2018-02-01T02:34:51.266Z,4.20
2018-02-01T02:37:19.702Z,3.30
2018-02-01T02:39:47.218Z,4.60
2018-02-01T02:42:15.487Z,3.67
2018-02-01T02:44:43.797Z,4.23
2018-02-01T02:47:12.031Z,3.50
2018-02-01T02:49:39.567Z,3.60
2018-02-01T02:52:07.084Z,3.30
2018-02-01T02:54:34.646Z,3.60
2018-02-01T02:57:02.191Z,4.50
2018-02-01T02:59:31.771Z,3.57
2018-02-01T03:02:00.035Z,3.10
2018-02-01T03:04:27.728Z,2.73
2018-02-01T03:06:56.027Z,3.70
2018-02-01T03:09:24.694Z,3.53
2018-02-01T03:11:52.221Z,3.07
2018-02-01T03:14:22.578Z,3.90
2018-02-01T03:16:50.094Z,3.13
2018-02-01T03:19:18.364Z,2.17
2018-02-01T03:21:45.922Z,3.47
2018-02-01T03:24:14.302Z,3.07
2018-02-01T03:26:44.660Z,2.33
2018-02-01T03:29:12.166Z,3.27
2018-02-01T03:31:40.467Z,2.33
2018-02-01T03:34:07.967Z,3.27
2018-02-01T03:36:35.501Z,3.00
2018-02-01T03:39:04.820Z,2.23
2018-02-01T03:41:33.114Z,3.23
2018-02-01T03:44:00.606Z,3.33
2018-02-01T03:46:28.871Z,2.53
2018-02-01T03:48:57.094Z,2.40
2018-02-01T03:51:25.395Z,2.53
2018-02-01T03:53:52.891Z,2.23
2018-02-01T03:56:21.342Z,3.10
2018-02-01T03:58:49.753Z,2.30
2018-02-01T04:01:17.850Z,3.40
2018-02-01T04:03:45.418Z,3.43
2018-02-01T04:06:12.956Z,2.27
2018-02-01T04:08:40.597Z,2.30
2018-02-01T04:11:08.876Z,2.43
2018-02-01T04:13:37.147Z,2.80
2018-02-01T04:16:04.691Z,2.10
2018-02-01T04:18:32.206Z,3.10
2018-02-01T04:21:01.360Z,2.93
2018-02-01T04:23:29.721Z,3.03
2018-02-01T04:25:57.246Z,2.93
2018-02-01T04:28:24.759Z,2.90
2018-02-01T04:30:52.291Z,2.37
2018-02-01T04:33:19.811Z,2.90
2018-02-01T04:35:47.335Z,3.37
2018-02-01T04:38:14.855Z,2.70
2018-02-01T04:40:43.178Z,2.30
2018-02-01T04:43:10.705Z,4.30
2018-02-01T04:45:38.211Z,2.33
2018-02-01T04:48:05.751Z,2.90
2018-02-01T04:50:33.267Z,1.87
2018-02-01T04:53:00.776Z,3.10
2018-02-01T04:55:29.092Z,3.50
2018-02-01T04:57:56.601Z,2.67
2018-02-01T05:00:24.251Z,1.77
2018-02-01T05:02:51.778Z,2.00
2018-02-01T05:05:20.088Z,2.40
2018-02-01T05:07:47.594Z,2.20
2018-02-01T05:10:15.095Z,2.00
2018-02-01T05:12:42.629Z,2.53
2018-02-01T05:15:10.127Z,2.03
2018-02-01T05:17:37.691Z,2.17
2018-02-01T05:20:05.207Z,2.50
2018-02-01T05:22:33.511Z,3.20
2018-02-01T05:25:01.073Z,2.20
2018-02-01T05:27:29.386Z,2.37
2018-02-01T05:29:56.943Z,2.50
2018-02-01T05:32:25.175Z,3.00
2018-02-01T05:34:52.680Z,4.70
2018-02-01T05:37:22.012Z,3.30
2018-02-01T05:39:49.519Z,10.37
2018-02-01T05:42:17.651Z,9.30
2018-02-01T05:44:45.154Z,7.13
2018-02-01T05:47:12.672Z,6.13
2018-02-01T05:49:40.210Z,3.00
2018-02-01T05:52:07.718Z,2.80
2018-02-01T05:54:35.276Z,2.63
2018-02-01T05:57:02.783Z,6.33
2018-02-01T05:59:30.339Z,3.00
2018-02-01T06:01:57.846Z,2.93
2018-02-01T06:04:25.956Z,4.40
2018-02-01T06:06:54.034Z,4.00
2018-02-01T06:09:21.566Z,2.77
2018-02-01T06:11:49.850Z,2.53
2018-02-01T06:14:18.224Z,2.80
2018-02-01T06:16:45.762Z,2.97
2018-02-01T06:19:15.543Z,2.23
2018-02-01T06:21:43.852Z,2.43
2018-02-01T06:24:13.187Z,2.83
2018-02-01T06:26:40.764Z,4.30
2018-02-01T06:29:08.291Z,3.30
2018-02-01T06:31:36.555Z,2.93
2018-02-01T06:34:04.097Z,4.70
2018-02-01T06:36:32.251Z,2.80
2018-02-01T06:38:59.747Z,2.20
2018-02-01T06:41:27.294Z,2.60
2018-02-01T06:43:54.849Z,2.40
2018-02-01T06:46:22.356Z,2.63
2018-02-01T06:48:50.642Z,2.80
2018-02-01T06:51:18.187Z,3.83
2018-02-01T06:53:46.468Z,3.30
2018-02-01T06:56:14.569Z,2.77
2018-02-01T06:58:42.835Z,3.33
2018-02-01T07:01:20.285Z,2.53
2018-02-01T07:03:47.826Z,3.73
2018-02-01T07:06:18.046Z,3.93
2018-02-01T07:08:45.579Z,3.57
2018-02-01T07:11:14.119Z,3.93
2018-02-01T07:13:41.635Z,2.30
2018-02-01T07:16:11.373Z,2.70
2018-02-01T07:18:38.913Z,2.80
2018-02-01T07:21:06.449Z,2.53
2018-02-01T07:23:33.998Z,3.10
2018-02-01T07:26:01.582Z,4.47
2018-02-01T07:28:29.140Z,4.60
2018-02-01T07:30:57.551Z,3.70
2018-02-01T07:33:25.074Z,3.20
2018-02-01T07:35:52.603Z,3.50
2018-02-01T07:38:20.147Z,3.33
2018-02-01T07:40:47.764Z,3.10
2018-02-01T07:43:15.409Z,3.40
2018-02-01T07:45:43.451Z,3.37
2018-02-01T07:48:10.958Z,3.07
2018-02-01T07:50:38.515Z,3.10
2018-02-01T07:53:06.053Z,4.30
2018-02-01T07:55:33.564Z,4.53
2018-02-01T07:58:01.692Z,3.13
2018-02-01T08:00:32.939Z,4.30
2018-02-01T08:03:01.355Z,2.87
2018-02-01T08:05:29.630Z,3.63
2018-02-01T08:07:57.927Z,3.37
2018-02-01T08:10:26.251Z,3.33
2018-02-01T08:12:54.477Z,2.93
2018-02-01T08:15:22.023Z,3.67
2018-02-01T08:17:49.527Z,3.10
2018-02-01T08:20:17.052Z,3.53
2018-02-01T08:22:44.552Z,3.10
2018-02-01T08:25:12.086Z,3.30
2018-02-01T08:27:39.595Z,3.40
2018-02-01T08:30:07.120Z,3.20
2018-02-01T08:32:34.661Z,3.63
2018-02-01T08:35:02.188Z,3.33
2018-02-01T08:37:29.721Z,2.20
2018-02-01T08:39:57.999Z,3.27
2018-02-01T08:42:26.278Z,4.37
2018-02-01T08:44:53.826Z,2.87
2018-02-01T08:47:21.955Z,3.13
2018-02-01T08:49:50.238Z,3.37
2018-02-01T08:52:18.530Z,3.10
2018-02-01T08:54:58.487Z,2.97
2018-02-01T08:57:26.026Z,2.90
2018-02-01T08:59:55.219Z,2.77
2018-02-01T09:02:23.370Z,3.47
2018-02-01T09:04:52.236Z,2.90
2018-02-01T09:07:19.787Z,3.30
2018-02-01T09:09:47.298Z,3.37
2018-02-01T09:12:14.837Z,2.83
2018-02-01T09:14:42.338Z,2.50
2018-02-01T09:17:09.839Z,2.70
2018-02-01T09:19:37.373Z,2.23
2018-02-01T09:22:04.914Z,2.17
2018-02-01T09:24:33.174Z,2.20
2018-02-01T09:27:00.684Z,2.53
2018-02-01T09:29:28.695Z,2.93
2018-02-01T09:31:56.193Z,2.37
2018-02-01T09:34:23.718Z,2.20
2018-02-01T09:36:51.238Z,2.00
2018-02-01T09:39:18.744Z,2.27
2018-02-01T09:41:50.195Z,2.40
2018-02-01T09:44:17.772Z,2.80
2018-02-01T09:46:45.277Z,4.97
2018-02-01T09:49:12.783Z,3.73
2018-02-01T09:51:40.306Z,2.20
2018-02-01T09:54:08.681Z,4.17
2018-02-01T09:56:37.134Z,2.60
2018-02-01T09:59:05.535Z,3.90
2018-02-01T10:01:33.059Z,2.80
2018-02-01T10:04:01.298Z,2.40
2018-02-01T10:06:28.825Z,2.30
2018-02-01T10:08:56.377Z,2.23
2018-02-01T10:11:23.896Z,2.03
2018-02-01T10:13:51.399Z,2.77
2018-02-01T10:16:18.943Z,1.63
2018-02-01T10:18:46.457Z,1.70
2018-02-01T10:21:13.965Z,2.40
2018-02-01T10:23:41.522Z,2.57
2018-02-01T10:26:09.021Z,2.40
2018-02-01T10:28:37.280Z,1.77
2018-02-01T10:31:04.832Z,2.07
2018-02-01T10:33:32.326Z,2.77
2018-02-01T10:35:59.890Z,2.10
2018-02-01T10:38:27.389Z,2.40
2018-02-01T10:40:55.706Z,2.10
2018-02-01T10:43:23.207Z,3.13
2018-02-01T10:45:50.731Z,2.30
2018-02-01T10:48:18.266Z,2.57
2018-02-01T10:50:46.641Z,2.47
2018-02-01T10:53:14.155Z,2.73
2018-02-01T10:55:42.418Z,1.90
2018-02-01T10:58:09.955Z,2.90
2018-02-01T11:00:37.470Z,2.67
2018-02-01T11:03:04.970Z,2.63
2018-02-01T11:05:33.299Z,3.73
2018-02-01T11:08:01.369Z,2.80
2018-02-01T11:10:29.653Z,2.17
2018-02-01T11:12:57.178Z,1.90
2018-02-01T11:15:27.190Z,1.97
2018-02-01T11:17:54.714Z,2.63
2018-02-01T11:20:22.216Z,3.33
2018-02-01T11:22:50.564Z,3.33
2018-02-01T11:25:20.811Z,2.83
2018-02-01T11:27:48.343Z,1.77
2018-02-01T11:30:15.857Z,3.67
2018-02-01T11:32:43.397Z,3.53
2018-02-01T11:35:10.900Z,2.20
2018-02-01T11:37:39.125Z,4.20
2018-02-01T11:40:06.650Z,2.60
2018-02-01T11:42:34.173Z,2.57
2018-02-01T11:45:07.594Z,2.33
2018-02-01T11:47:36.054Z,2.70
2018-02-01T11:50:03.595Z,2.20
2018-02-01T11:52:31.102Z,2.83
2018-02-01T11:54:58.631Z,3.20
2018-02-01T11:57:26.933Z,4.27
2018-02-01T11:59:54.441Z,2.90
2018-02-01T12:02:21.987Z,2.53
2018-02-01T12:04:49.506Z,2.60
2018-02-01T12:07:17.818Z,2.60
2018-02-01T12:09:46.899Z,3.97
2018-02-01T12:12:14.398Z,2.00
2018-02-01T12:14:42.714Z,3.43
2018-02-01T12:17:10.218Z,2.80
2018-02-01T12:19:38.643Z,2.73
2018-02-01T12:22:06.987Z,1.90
2018-02-01T12:24:35.253Z,2.33
2018-02-01T12:27:02.795Z,2.80
2018-02-01T12:29:31.878Z,2.53
2018-02-01T12:31:59.403Z,2.03
2018-02-01T12:34:26.938Z,2.47
2018-02-01T12:36:57.259Z,2.23
2018-02-01T12:39:26.814Z,2.00
2018-02-01T12:41:55.101Z,2.27
2018-02-01T12:44:24.123Z,2.67
2018-02-01T12:46:51.670Z,1.93
2018-02-01T12:49:21.499Z,2.57
2018-02-01T12:51:50.681Z,2.30
2018-02-01T12:54:18.183Z,7.40
2018-02-01T12:56:46.447Z,4.77
2018-02-01T12:59:14.806Z,5.03
2018-02-01T13:01:42.302Z,2.80
2018-02-01T13:04:09.839Z,8.37
2018-02-01T13:06:37.342Z,3.40
2018-02-01T13:09:04.843Z,2.67
2018-02-01T13:11:33.163Z,3.10
2018-02-01T13:14:00.666Z,2.40
2018-02-01T13:16:28.181Z,3.70
2018-02-01T13:18:55.761Z,3.10
2018-02-01T13:21:23.267Z,16.23
2018-02-01T13:23:51.576Z,23.93
2018-02-01T13:26:19.115Z,19.27
2018-02-01T13:28:47.456Z,6.77
2018-02-01T13:31:14.964Z,3.37
2018-02-01T13:33:42.499Z,3.20
2018-02-01T13:36:10.764Z,3.50
2018-02-01T13:38:38.267Z,3.47
2018-02-01T13:41:05.796Z,2.80
2018-02-01T13:43:34.861Z,3.60
2018-02-01T13:46:02.400Z,3.80
2018-02-01T13:48:30.889Z,3.90
2018-02-01T13:50:58.415Z,3.97
2018-02-01T13:53:25.919Z,4.03
2018-02-01T13:55:53.419Z,4.60
2018-02-01T13:58:20.931Z,5.30
2018-02-01T14:00:48.426Z,4.60
2018-02-01T14:03:16.719Z,4.00
2018-02-01T14:05:45.085Z,4.97
2018-02-01T14:08:13.381Z,4.40
2018-02-01T14:10:41.626Z,5.03
2018-02-01T14:13:09.926Z,4.90
2018-02-01T14:15:49.356Z,5.30
2018-02-01T14:18:17.574Z,4.80
2018-02-01T14:20:45.106Z,4.87
2018-02-01T14:23:12.638Z,4.53
2018-02-01T14:25:40.903Z,5.10
2018-02-01T14:28:09.215Z,4.57
2018-02-01T14:30:36.718Z,6.37
2018-02-01T14:33:04.255Z,5.37
2018-02-01T14:35:31.854Z,4.80
2018-02-01T14:38:00.164Z,5.77
2018-02-01T14:40:27.771Z,5.70
2018-02-01T14:42:55.358Z,5.37
2018-02-01T14:45:23.665Z,5.20
2018-02-01T14:47:51.237Z,5.40
2018-02-01T14:50:18.805Z,5.87
2018-02-01T14:52:46.331Z,6.10
2018-02-01T14:55:14.655Z,6.10
2018-02-01T14:57:42.194Z,5.67
2018-02-01T15:00:09.801Z,5.57
2018-02-01T15:02:37.335Z,5.60
2018-02-01T15:05:04.876Z,4.50
2018-02-01T15:07:32.437Z,5.00
2018-02-01T15:10:00.009Z,4.67
2018-02-01T15:12:27.640Z,4.53
2018-02-01T15:14:55.991Z,4.30
2018-02-01T15:17:24.336Z,5.27
2018-02-01T15:19:51.899Z,3.70
2018-02-01T15:22:19.463Z,4.00
2018-02-01T15:24:47.036Z,3.57
2018-02-01T15:27:14.600Z,3.87
2018-02-01T15:29:42.188Z,3.53
2018-02-01T15:32:09.748Z,3.63
2018-02-01T15:34:38.082Z,3.20
2018-02-01T15:37:05.667Z,3.37
2018-02-01T15:39:34.017Z,3.67
2018-02-01T15:42:01.561Z,3.50
2018-02-01T15:44:29.090Z,4.07
2018-02-01T15:46:56.622Z,3.03
2018-02-01T15:49:24.173Z,3.00
2018-02-01T15:51:51.685Z,3.43
2018-02-01T15:54:19.220Z,38.53
2018-02-01T15:56:47.556Z,7.47
2018-02-01T15:59:15.131Z,23.20
2018-02-01T16:01:42.708Z,9.87
2018-02-01T16:04:11.022Z,9.00
2018-02-01T16:06:38.582Z,6.20
2018-02-01T16:09:06.210Z,6.87
2018-02-01T16:11:33.778Z,10.43
2018-02-01T16:14:01.387Z,25.93
2018-02-01T16:16:28.918Z,29.33
2018-02-01T16:18:56.473Z,5.37
2018-02-01T16:21:24.042Z,6.50
2018-02-01T16:23:51.581Z,5.80
2018-02-01T16:26:19.168Z,4.80
2018-02-01T16:28:46.704Z,4.20
2018-02-01T16:31:14.272Z,5.03
2018-02-01T16:33:41.878Z,4.57
2018-02-01T16:36:09.406Z,4.93
2018-02-01T16:38:36.927Z,5.10
2018-02-01T16:41:05.192Z,4.50
2018-02-01T16:43:32.738Z,4.60
2018-02-01T16:46:00.236Z,4.60
2018-02-01T16:48:27.734Z,5.10
2018-02-01T16:50:55.269Z,5.20
2018-02-01T16:53:22.798Z,5.93
2018-02-01T16:55:51.067Z,5.43
2018-02-01T16:58:18.598Z,5.70
2018-02-01T17:00:46.121Z,6.53
2018-02-01T17:03:13.655Z,6.27
2018-02-01T17:05:41.930Z,6.33
2018-02-01T17:08:10.203Z,6.27
2018-02-01T17:10:38.493Z,6.53
2018-02-01T17:13:06.759Z,6.47
2018-02-01T17:15:35.052Z,6.00
2018-02-01T17:18:02.551Z,7.27
2018-02-01T17:20:30.087Z,6.20
2018-02-01T17:22:57.670Z,6.57
2018-02-01T17:25:25.215Z,7.00
2018-02-01T17:27:52.750Z,8.70
2018-02-01T17:30:20.295Z,7.80
2018-02-01T17:32:48.597Z,7.30
2018-02-01T17:35:16.106Z,7.30
2018-02-01T17:37:43.634Z,7.80
2018-02-01T17:40:11.185Z,6.93
2018-02-01T17:42:38.956Z,6.83
2018-02-01T17:45:06.673Z,7.33
2018-02-01T17:47:34.194Z,6.73
2018-02-01T17:50:01.728Z,7.57
2018-02-01T17:52:29.592Z,7.90
2018-02-01T17:54:57.192Z,8.60
2018-02-01T17:57:24.765Z,10.50
2018-02-01T17:59:52.278Z,9.30
2018-02-01T18:02:19.832Z,7.10
2018-02-01T18:04:47.400Z,8.03
2018-02-01T18:07:14.925Z,9.30
2018-02-01T18:09:43.202Z,8.03
2018-02-01T18:12:11.526Z,7.43
2018-02-01T18:14:39.042Z,8.53
2018-02-01T18:17:06.607Z,8.63
2018-02-01T18:19:34.159Z,7.53
2018-02-01T18:22:01.700Z,9.87
2018-02-01T18:24:29.230Z,7.23
2018-02-01T18:26:56.799Z,7.50
2018-02-01T18:29:24.315Z,9.60
2018-02-01T18:31:51.932Z,7.90
2018-02-01T18:34:19.454Z,8.30
2018-02-01T18:36:47.004Z,7.73
2018-02-01T18:39:14.519Z,7.57
2018-02-01T18:41:42.039Z,6.73
2018-02-01T18:44:09.575Z,8.50
2018-02-01T18:46:37.121Z,7.20
2018-02-01T18:49:04.658Z,6.30
2018-02-01T18:51:32.188Z,7.53
2018-02-01T18:53:59.731Z,7.40
2018-02-01T18:56:27.238Z,7.63
2018-02-01T18:58:54.774Z,6.20
2018-02-01T19:01:22.299Z,6.67
2018-02-01T19:03:49.852Z,6.47
2018-02-01T19:06:17.355Z,6.70
2018-02-01T19:08:44.887Z,6.60
2018-02-01T19:11:12.492Z,6.70
2018-02-01T19:13:40.000Z,7.13
2018-02-01T19:16:07.563Z,6.33
2018-02-01T19:18:35.079Z,5.97
2018-02-01T19:21:02.617Z,6.37
2018-02-01T19:23:30.140Z,7.27
2018-02-01T19:25:57.713Z,7.03
2018-02-01T19:28:25.263Z,6.40
2018-02-01T19:30:52.788Z,7.70
2018-02-01T19:33:21.091Z,7.73
2018-02-01T19:35:48.647Z,8.97
2018-02-01T19:38:16.936Z,8.67
2018-02-01T19:40:45.213Z,8.40
2018-02-01T19:43:13.524Z,8.60
2018-02-01T19:45:41.810Z,6.97
2018-02-01T19:48:10.107Z,7.67
2018-02-01T19:50:37.658Z,7.97
2018-02-01T19:53:05.220Z,6.40
2018-02-01T19:55:32.747Z,8.27
2018-02-01T19:58:00.281Z,8.60
2018-02-01T20:00:28.592Z,9.60
2018-02-01T20:02:56.150Z,5.90
2018-02-01T20:05:24.431Z,7.60
2018-02-01T20:07:52.716Z,7.43
2018-02-01T20:10:20.275Z,8.50
2018-02-01T20:12:47.783Z,8.30
2018-02-01T20:15:15.340Z,7.63
2018-02-01T20:17:43.611Z,8.50
2018-02-01T20:20:11.126Z,8.03
2018-02-01T20:22:38.662Z,8.00
2018-02-01T20:25:06.180Z,8.07
2018-02-01T20:27:33.730Z,7.47
2018-02-01T20:30:02.339Z,7.90
2018-02-01T20:32:29.918Z,7.07
2018-02-01T20:34:57.508Z,7.47
2018-02-01T20:37:25.042Z,7.67
2018-02-01T20:39:53.347Z,8.67
2018-02-01T20:42:20.855Z,8.00
2018-02-01T20:44:48.404Z,7.80
2018-02-01T20:47:15.923Z,6.17
2018-02-01T20:49:43.452Z,6.50
2018-02-01T20:52:10.962Z,8.00
2018-02-01T20:54:38.559Z,7.63
2018-02-01T20:57:06.838Z,6.83
2018-02-01T20:59:34.394Z,6.33
2018-02-01T21:02:01.915Z,7.50
2018-02-01T21:04:29.423Z,7.03
2018-02-01T21:06:56.952Z,7.43
2018-02-01T21:09:24.506Z,6.60
2018-02-01T21:11:52.808Z,6.23
2018-02-01T21:14:20.320Z,5.43
2018-02-01T21:16:47.843Z,6.43
2018-02-01T21:19:16.158Z,5.97
2018-02-01T21:21:43.664Z,5.77
2018-02-01T21:24:11.207Z,5.80
2018-02-01T21:26:38.715Z,6.60
2018-02-01T21:29:06.218Z,5.90
2018-02-01T21:31:34.528Z,5.07
2018-02-01T21:34:02.063Z,6.00
2018-02-01T21:36:30.343Z,6.20
2018-02-01T21:38:57.848Z,6.40
2018-02-01T21:41:25.375Z,6.30
2018-02-01T21:43:52.879Z,7.00
2018-02-01T21:46:21.176Z,7.00
2018-02-01T21:48:49.440Z,6.57
2018-02-01T21:51:16.992Z,7.73
2018-02-01T21:53:44.500Z,6.90
2018-02-01T21:56:12.766Z,6.37
2018-02-01T21:58:40.326Z,7.70
2018-02-01T22:01:07.825Z,6.87
2018-02-01T22:03:36.111Z,7.17
2018-02-01T22:06:04.403Z,7.60
2018-02-01T22:08:32.679Z,6.53
2018-02-01T22:11:00.979Z,6.70
2018-02-01T22:13:28.486Z,6.03
2018-02-01T22:15:56.123Z,7.63
2018-02-01T22:18:24.399Z,5.90
2018-02-01T22:20:51.978Z,6.73
2018-02-01T22:23:19.519Z,6.03
2018-02-01T22:25:47.023Z,6.67
2018-02-01T22:28:15.354Z,6.23
2018-02-01T22:30:42.868Z,6.43
2018-02-01T22:33:10.395Z,8.20
2018-02-01T22:35:37.899Z,6.60
2018-02-01T22:38:05.460Z,5.97
2018-02-01T22:40:33.028Z,6.03
2018-02-01T22:43:00.526Z,5.20
2018-02-01T22:45:28.057Z,6.83
2018-02-01T22:47:55.579Z,6.77
2018-02-01T22:50:23.118Z,6.30
2018-02-01T22:52:51.441Z,6.00
2018-02-01T22:55:18.947Z,5.33
2018-02-01T22:57:46.468Z,5.77
2018-02-01T23:00:14.003Z,6.47
2018-02-01T23:05:15.251Z,6.70
2018-02-01T23:07:43.517Z,5.63
2018-02-01T23:10:11.004Z,6.87
2018-02-01T23:12:38.524Z,5.87
2018-02-01T23:15:06.016Z,6.40
2018-02-01T23:17:33.538Z,6.33
2018-02-01T23:20:01.816Z,6.20
2018-02-01T23:22:30.065Z,7.20
2018-02-01T23:24:57.569Z,5.47
2018-02-01T23:27:25.860Z,5.60
2018-02-01T23:29:53.343Z,5.70
2018-02-01T23:32:21.660Z,5.30
2018-02-01T23:34:49.609Z,5.80
2018-02-01T23:37:17.105Z,6.00
2018-02-01T23:39:44.607Z,5.50
2018-02-01T23:42:12.180Z,5.00
2018-02-01T23:44:39.667Z,5.17
2018-02-01T23:47:07.180Z,4.97
2018-02-01T23:49:34.687Z,4.60
2018-02-01T23:52:02.191Z,5.50
2018-02-01T23:54:29.692Z,5.40
2018-02-01T23:56:57.548Z,5.70
2018-02-01T23:59:26.016Z,5.60
